Time;durP1;ratioP1;P1;durP2;ratioP2;P2;SDS_P1;SDS_P2;PMS_P1;PMS_P2;Temp;Humidity;BMP_temperature;BMP_pressure;BME280_temperature;BME280_humidity;BME280_pressure;Samples;Min_cycle;Max_cycle;Signal;HPM_P1;HPM_P2
2022/03/09 00:01:17;;;;;;;41.85;17.27;;;;;;;-3.60;71.65;93829.00;5002876;28;20332;-81
2022/03/09 00:03:42;;;;;;;36.00;17.73;;;;;;;-3.62;71.32;93825.84;5002944;28;20069;-81
2022/03/09 00:06:08;;;;;;;38.45;18.00;;;;;;;-3.62;71.99;93825.84;5002640;28;20101;-81
2022/03/09 00:08:33;;;;;;;43.20;18.95;;;;;;;-3.63;72.11;93824.22;5002680;28;20025;-80
2022/03/09 00:10:59;;;;;;;39.85;16.95;;;;;;;-3.67;71.50;93826.47;5005963;28;20026;-80
2022/03/09 00:13:24;;;;;;;33.38;17.17;;;;;;;-3.76;71.85;93821.84;5006141;28;20030;-79
2022/03/09 00:15:50;;;;;;;43.03;17.52;;;;;;;-3.75;71.93;93821.59;5006205;28;20096;-81
2022/03/09 00:18:15;;;;;;;41.35;18.48;;;;;;;-3.76;71.86;93824.47;5005880;28;20030;-80
2022/03/09 00:20:41;;;;;;;41.78;17.70;;;;;;;-3.79;71.71;93819.69;5021372;28;20033;-82
2022/03/09 00:23:06;;;;;;;35.78;16.67;;;;;;;-3.81;71.63;93824.31;5006031;28;20042;-80
2022/03/09 00:25:32;;;;;;;36.20;16.83;;;;;;;-3.77;71.65;93828.06;5005947;28;20172;-81
2022/03/09 00:27:57;;;;;;;37.67;17.33;;;;;;;-3.77;71.57;93821.03;5005923;28;20029;-81
2022/03/09 00:30:23;;;;;;;37.38;17.25;;;;;;;-3.74;71.47;93823.22;5005847;28;20025;-79
2022/03/09 00:32:49;;;;;;;35.33;17.30;;;;;;;-3.67;71.41;93821.28;5005919;28;20026;-82
2022/03/09 00:35:15;;;;;;;36.42;16.40;;;;;;;-3.62;71.29;93820.63;5006088;28;20085;-81
2022/03/09 00:37:40;;;;;;;36.17;15.90;;;;;;;-3.62;71.20;93815.41;5021011;28;20034;-81
2022/03/09 00:40:06;;;;;;;38.10;16.35;;;;;;;-3.61;71.12;93809.16;5005584;28;20029;-82
2022/03/09 00:42:37;;;;;;;36.22;16.88;;;;;;;-3.62;70.80;93820.63;5005402;28;20050;-80
2022/03/09 00:45:03;;;;;;;32.85;16.63;;;;;;;-3.65;71.07;93816.63;5005637;28;20317;-80
2022/03/09 00:47:28;;;;;;;34.75;16.27;;;;;;;-3.59;70.73;93814.16;5005422;28;20081;-80
2022/03/09 00:49:54;;;;;;;35.25;15.55;;;;;;;-3.63;70.79;93816.41;5005508;28;20372;-80
2022/03/09 00:52:39;;;;;;;37.05;17.05;;;;;;;-3.58;70.62;93806.13;5005466;28;20213;-80
2022/03/09 00:55:06;;;;;;;36.22;16.15;;;;;;;-3.55;70.57;93800.44;5005033;28;20226;-81
2022/03/09 00:57:32;;;;;;;43.17;16.27;;;;;;;-3.57;70.92;93802.47;5005295;28;20037;-81
2022/03/09 00:59:57;;;;;;;37.13;17.98;;;;;;;-3.56;70.03;93803.28;5005127;28;20034;-81
2022/03/09 01:02:23;;;;;;;33.72;16.95;;;;;;;-3.60;70.49;93797.75;5005260;28;20268;-82
2022/03/09 01:04:48;;;;;;;33.10;15.57;;;;;;;-3.63;70.38;93792.97;5004952;28;20320;-81
2022/03/09 01:07:14;;;;;;;32.88;17.20;;;;;;;-3.61;70.36;93796.13;5005194;28;20887;-80
2022/03/09 01:09:39;;;;;;;39.42;17.13;;;;;;;-3.55;70.14;93795.22;5005271;28;20018;-80
2022/03/09 01:12:05;;;;;;;32.58;15.35;;;;;;;-3.58;70.21;93790.50;5004981;28;20080;-80
2022/03/09 01:14:30;;;;;;;41.25;16.55;;;;;;;-3.56;69.50;93788.44;5005020;28;20085;-80
2022/03/09 01:16:56;;;;;;;34.92;16.92;;;;;;;-3.52;69.70;93791.38;5004890;28;20098;-80
2022/03/09 01:19:21;;;;;;;31.00;16.00;;;;;;;-3.60;69.20;93791.72;5005018;28;20038;-81
2022/03/09 01:21:47;;;;;;;32.45;15.82;;;;;;;-3.53;68.36;93779.38;5003963;28;20034;-80
2022/03/09 01:24:12;;;;;;;34.97;15.70;;;;;;;-3.53;68.31;93787.19;5005021;28;20034;-80
2022/03/09 01:26:38;;;;;;;31.35;16.58;;;;;;;-3.60;67.99;93782.09;5004856;28;20073;-80
2022/03/09 01:29:04;;;;;;;36.05;17.20;;;;;;;-3.63;68.20;93780.72;5004533;28;20312;-81
2022/03/09 01:31:29;;;;;;;36.22;16.45;;;;;;;-3.53;68.84;93782.78;5004606;28;20156;-80
2022/03/09 01:33:55;;;;;;;31.38;16.08;;;;;;;-3.53;68.48;93782.78;5004706;28;20026;-82
2022/03/09 01:36:20;;;;;;;36.90;17.70;;;;;;;-3.46;68.51;93787.84;5004723;28;20022;-81
2022/03/09 01:38:46;;;;;;;30.90;16.23;;;;;;;-3.45;68.34;93782.44;5004591;28;20335;-81
2022/03/09 01:41:11;;;;;;;41.13;15.75;;;;;;;-3.50;67.76;93784.94;5004592;28;20049;-81
2022/03/09 01:43:38;;;;;;;38.50;16.63;;;;;;;-3.54;67.48;93785.59;5004508;28;20069;-81
2022/03/09 01:46:04;;;;;;;33.75;17.00;;;;;;;-3.60;67.60;93779.50;5004562;28;20335;-81
2022/03/09 01:48:29;;;;;;;38.85;17.38;;;;;;;-3.55;67.64;93790.03;5004287;28;20018;-82
2022/03/09 01:50:55;;;;;;;36.05;16.23;;;;;;;-3.56;67.59;93795.44;5004428;28;20026;-82
2022/03/09 01:53:21;;;;;;;34.97;16.40;;;;;;;-3.60;66.98;93792.53;5004193;28;20097;-81
2022/03/09 01:55:46;;;;;;;38.15;16.63;;;;;;;-3.65;67.61;93792.41;5004327;28;20132;-81
2022/03/09 01:58:12;;;;;;;35.17;16.65;;;;;;;-3.59;67.02;93788.88;5004195;28;20026;-81
2022/03/09 02:00:37;;;;;;;36.22;16.85;;;;;;;-3.57;66.58;93792.06;5004187;28;20081;-80
2022/03/09 02:03:03;;;;;;;36.45;17.08;;;;;;;-3.56;66.97;93788.44;5003930;28;20018;-81
2022/03/09 02:05:29;;;;;;;33.00;15.48;;;;;;;-3.66;66.74;93789.00;5004052;28;20030;-79
2022/03/09 02:10:39;;;;;;;34.83;15.80;;;;;;;-3.58;65.81;93787.88;5003952;28;20264;-81
2022/03/09 02:13:06;;;;;;;34.13;15.55;;;;;;;-3.66;66.17;93789.00;5003782;28;20101;-81
2022/03/09 02:15:32;;;;;;;35.67;16.05;;;;;;;-3.73;66.21;93783.09;5003941;28;20018;-82
2022/03/09 02:17:59;;;;;;;36.80;16.67;;;;;;;-3.75;66.93;93779.94;5003988;28;20037;-81
2022/03/09 02:20:25;;;;;;;36.45;16.35;;;;;;;-3.77;66.70;93776.75;5003544;28;20026;-81
2022/03/09 02:22:53;;;;;;;35.50;15.48;;;;;;;-3.78;66.63;93779.63;5003783;28;20019;-80
2022/03/09 02:25:19;;;;;;;41.40;17.83;;;;;;;-3.81;66.71;93780.06;5003750;28;20344;-81
2022/03/09 02:27:45;;;;;;;35.28;15.90;;;;;;;-3.68;67.12;93774.63;5002805;28;20018;-81
2022/03/09 02:30:17;;;;;;;39.42;18.17;;;;;;;-3.60;67.21;93782.09;5003471;28;20034;-81
2022/03/09 02:32:44;;;;;;;36.28;15.90;;;;;;;-3.61;66.53;93775.28;5003559;28;20023;-82
2022/03/09 02:35:10;;;;;;;35.28;17.10;;;;;;;-3.61;66.28;93782.31;5003462;28;20026;-81
2022/03/09 02:37:37;;;;;;;35.90;16.48;;;;;;;-3.58;66.74;93774.03;5002500;28;20141;-81
2022/03/09 02:40:04;;;;;;;41.97;16.83;;;;;;;-3.63;66.42;93775.50;5003436;28;20036;-82
2022/03/09 02:42:29;;;;;;;37.67;16.15;;;;;;;-3.57;66.40;93779.03;5003310;28;20045;-82
2022/03/09 02:44:54;;;;;;;41.30;17.52;;;;;;;-3.53;66.52;93772.34;5003335;28;20042;-81
2022/03/09 02:47:20;;;;;;;34.40;16.90;;;;;;;-3.41;66.01;93776.78;5003567;28;20029;-82
2022/03/09 02:49:46;;;;;;;34.90;16.95;;;;;;;-3.36;65.89;93777.66;5003696;28;20049;-82
2022/03/09 02:52:11;;;;;;;34.00;15.57;;;;;;;-3.34;65.73;93780.03;5003465;28;20221;-82
2022/03/09 02:54:36;;;;;;;39.13;17.98;;;;;;;-3.36;66.27;93784.69;5002260;28;20068;-82
2022/03/09 02:57:02;;;;;;;37.38;17.17;;;;;;;-3.47;66.00;93779.25;5003198;28;20026;-82
2022/03/09 02:59:28;;;;;;;37.35;18.23;;;;;;;-3.42;66.01;93778.56;5003120;28;20022;-81
2022/03/09 03:01:53;;;;;;;38.63;17.15;;;;;;;-3.38;65.74;93784.91;5003326;28;20046;-81
2022/03/09 03:04:19;;;;;;;38.65;18.02;;;;;;;-3.36;65.84;93787.28;5003389;28;20033;-81
2022/03/09 03:06:45;;;;;;;36.15;18.48;;;;;;;-3.37;66.15;93783.13;5003388;28;20053;-81
2022/03/09 03:09:10;;;;;;;36.67;18.73;;;;;;;-3.33;65.40;93776.41;5003037;28;20042;-81
2022/03/09 03:11:36;;;;;;;40.67;17.10;;;;;;;-3.35;65.67;93783.69;5003292;28;20026;-81
2022/03/09 03:14:01;;;;;;;42.50;19.20;;;;;;;-3.36;65.89;93784.69;5003236;28;20081;-81
2022/03/09 03:16:27;;;;;;;37.92;16.70;;;;;;;-3.51;65.66;93780.72;5003157;28;20058;-82
2022/03/09 03:18:52;;;;;;;38.03;17.17;;;;;;;-3.54;66.03;93773.38;5001922;28;20027;-82
2022/03/09 03:21:18;;;;;;;39.08;16.45;;;;;;;-3.64;66.66;93789.56;5003177;28;20023;-82
2022/03/09 03:23:43;;;;;;;38.78;17.77;;;;;;;-3.66;66.73;93783.00;5003096;28;20399;-82
2022/03/09 03:26:09;;;;;;;35.13;17.27;;;;;;;-3.63;66.15;93788.53;5003142;28;20037;-81
2022/03/09 03:28:34;;;;;;;41.28;18.00;;;;;;;-3.58;66.22;93790.50;5003036;28;20316;-82
2022/03/09 03:31:00;;;;;;;38.35;17.13;;;;;;;-3.63;65.95;93791.16;5002994;28;20384;-80
2022/03/09 03:33:26;;;;;;;35.28;15.77;;;;;;;-3.64;65.85;93792.19;5002984;28;20022;-80
2022/03/09 03:35:52;;;;;;;36.10;16.42;;;;;;;-3.88;66.21;93795.78;5002965;28;20300;-80
2022/03/09 03:38:18;;;;;;;38.20;15.82;;;;;;;-3.85;67.25;93793.53;5003025;28;20074;-81
2022/03/09 03:40:44;;;;;;;38.38;16.75;;;;;;;-3.83;66.68;93788.91;5002686;28;20042;-81
2022/03/09 03:43:10;;;;;;;35.45;16.70;;;;;;;-3.80;66.43;93799.88;5002835;28;20022;-81
2022/03/09 03:45:35;;;;;;;35.58;15.93;;;;;;;-3.79;66.05;93796.25;5005650;28;20046;-80
2022/03/09 03:48:01;;;;;;;35.75;15.80;;;;;;;-3.87;65.80;93799.97;5006445;28;20377;-80
2022/03/09 03:50:27;;;;;;;36.72;17.42;;;;;;;-3.94;66.08;93789.66;5021519;28;20057;-80
2022/03/09 03:52:52;;;;;;;35.63;16.73;;;;;;;-3.98;66.37;93790.34;5006368;28;20353;-80
2022/03/09 03:55:18;;;;;;;37.17;17.25;;;;;;;-3.93;66.14;93788.66;5006479;28;20023;-81
2022/03/09 03:57:43;;;;;;;35.42;16.90;;;;;;;-3.89;66.36;93792.41;5006381;28;20045;-80
2022/03/09 04:00:10;;;;;;;37.28;18.40;;;;;;;-3.87;66.56;93787.75;5006150;28;20050;-80
2022/03/09 04:02:36;;;;;;;35.90;15.48;;;;;;;-3.95;65.52;93793.28;5006157;28;20064;-80
2022/03/09 04:05:05;;;;;;;34.90;16.10;;;;;;;-3.98;66.38;93793.72;5006264;28;20022;-80
2022/03/09 04:07:31;;;;;;;41.15;15.93;;;;;;;-4.17;66.00;93798.25;5006058;28;20034;-80
2022/03/09 04:09:57;;;;;;;39.28;17.40;;;;;;;-4.19;66.68;93791.66;5006138;28;20026;-80
2022/03/09 04:12:23;;;;;;;37.45;16.85;;;;;;;-4.28;67.30;93785.97;5006005;28;20301;-80
2022/03/09 04:14:50;;;;;;;37.60;17.95;;;;;;;-4.17;67.43;93793.03;5006135;28;20030;-80
2022/03/09 04:17:15;;;;;;;34.78;16.15;;;;;;;-4.20;67.05;93793.47;5006143;28;20026;-80
2022/03/09 04:19:41;;;;;;;36.38;16.65;;;;;;;-4.18;66.66;93783.63;5005859;28;20038;-80
2022/03/09 04:22:06;;;;;;;31.50;15.30;;;;;;;-4.25;67.01;93790.75;5005899;28;20033;-80
2022/03/09 04:24:32;;;;;;;34.08;14.38;;;;;;;-4.28;66.51;93775.56;5005796;28;20029;-80
2022/03/09 04:26:57;;;;;;;33.30;16.83;;;;;;;-4.21;67.09;93791.06;5005697;28;20022;-80
2022/03/09 04:29:23;;;;;;;33.50;17.15;;;;;;;-4.21;67.08;93781.47;5005729;28;20024;-80
2022/03/09 04:31:48;;;;;;;40.38;16.27;;;;;;;-4.19;67.02;93791.66;5005808;28;20054;-80
2022/03/09 04:34:13;;;;;;;37.25;17.40;;;;;;;-4.17;67.01;93798.25;5005675;28;20041;-80
2022/03/09 04:36:39;;;;;;;34.22;16.10;;;;;;;-4.26;66.53;93792.53;5005715;28;20026;-80
2022/03/09 04:39:05;;;;;;;38.03;17.00;;;;;;;-4.31;67.09;93789.81;5005458;28;20022;-81
2022/03/09 04:41:31;;;;;;;36.22;16.75;;;;;;;-4.22;67.17;93794.72;5005258;28;20050;-81
2022/03/09 04:43:57;;;;;;;44.13;17.45;;;;;;;-4.22;67.17;93789.50;5005666;28;20030;-81
2022/03/09 04:46:22;;;;;;;33.60;16.40;;;;;;;-4.19;67.03;93791.66;5005726;28;20328;-81
2022/03/09 04:48:49;;;;;;;34.00;15.05;;;;;;;-4.19;66.76;93795.06;5005734;28;20068;-81
2022/03/09 04:51:15;;;;;;;36.33;17.48;;;;;;;-4.25;66.50;93794.13;5005545;28;20221;-81
2022/03/09 04:53:41;;;;;;;37.05;17.10;;;;;;;-4.30;66.63;93793.22;5005444;28;20030;-81
2022/03/09 04:56:06;;;;;;;35.25;16.52;;;;;;;-4.37;66.95;93793.31;5005394;28;20324;-81
2022/03/09 04:58:32;;;;;;;39.60;18.00;;;;;;;-4.26;67.38;93789.94;5004167;28;20119;-81
2022/03/09 05:00:58;;;;;;;35.60;16.73;;;;;;;-4.23;66.94;93788.72;5005392;28;20316;-81
2022/03/09 05:03:23;;;;;;;35.63;17.35;;;;;;;-4.18;66.92;93790.66;5005303;28;20022;-80
2022/03/09 05:05:49;;;;;;;35.67;16.65;;;;;;;-4.20;66.90;93787.47;5005280;28;20030;-80
2022/03/09 05:08:14;;;;;;;36.47;17.35;;;;;;;-4.18;67.38;93801.06;5005183;28;20018;-81
2022/03/09 05:10:40;;;;;;;40.70;17.42;;;;;;;-4.14;67.07;93799.59;5005140;28;20014;-81
2022/03/09 05:13:05;;;;;;;36.25;16.80;;;;;;;-4.06;66.65;93802.66;5005087;28;20022;-81
2022/03/09 05:15:31;;;;;;;34.88;16.60;;;;;;;-3.96;66.59;93814.34;5005331;28;20224;-81
2022/03/09 05:17:57;;;;;;;41.95;18.63;;;;;;;-3.92;66.71;93803.25;5005021;28;20065;-81
2022/03/09 05:20:23;;;;;;;39.67;17.33;;;;;;;-3.83;66.25;93804.53;5004989;28;20021;-81
2022/03/09 05:22:49;;;;;;;34.22;15.90;;;;;;;-4.02;66.09;93813.44;5005106;28;20018;-79
2022/03/09 05:25:16;;;;;;;35.60;16.83;;;;;;;-4.13;66.62;93819.38;5004778;28;20205;-80
2022/03/09 05:27:42;;;;;;;40.65;17.73;;;;;;;-4.17;67.14;93820.84;5004756;28;20018;-80
2022/03/09 05:30:09;;;;;;;33.80;16.77;;;;;;;-4.16;67.00;93827.66;5004547;28;20105;-80
2022/03/09 05:32:35;;;;;;;38.92;17.42;;;;;;;-4.14;67.00;93829.00;5004685;28;20376;-79
2022/03/09 05:35:00;;;;;;;37.42;17.58;;;;;;;-4.14;66.77;93823.81;5004731;28;20026;-79
2022/03/09 05:37:28;;;;;;;31.15;15.75;;;;;;;-4.19;67.07;93831.50;5004543;28;20049;-79
2022/03/09 05:39:54;;;;;;;36.90;16.83;;;;;;;-4.15;66.84;93832.66;5004645;28;20026;-81
2022/03/09 05:42:19;;;;;;;37.15;18.35;;;;;;;-4.17;67.09;93831.25;5004190;28;20276;-81
2022/03/09 05:44:45;;;;;;;35.38;17.58;;;;;;;-4.07;67.25;93828.91;5004349;28;20085;-81
2022/03/09 05:47:10;;;;;;;38.58;16.55;;;;;;;-4.11;66.18;93827.75;5004374;28;20029;-81
2022/03/09 05:49:36;;;;;;;34.03;16.45;;;;;;;-4.03;66.70;93840.47;5004353;28;20047;-81
2022/03/09 05:52:01;;;;;;;33.83;17.00;;;;;;;-4.03;66.54;93835.25;5004303;28;20026;-79
2022/03/09 05:54:27;;;;;;;36.63;17.15;;;;;;;-3.94;66.46;93833.94;5004252;28;20202;-80
2022/03/09 05:56:52;;;;;;;39.17;16.98;;;;;;;-3.90;65.56;93844.69;5004385;28;20029;-80
2022/03/09 05:59:18;;;;;;;32.28;14.57;;;;;;;-3.96;65.88;93846.38;5004114;28;20363;-81
2022/03/09 06:01:43;;;;;;;37.78;16.63;;;;;;;-3.91;66.71;93846.53;5003815;28;20057;-80
2022/03/09 06:04:09;;;;;;;38.63;16.92;;;;;;;-3.89;66.11;93847.09;5003868;28;20109;-81
2022/03/09 06:06:34;;;;;;;41.25;17.55;;;;;;;-3.94;66.50;93841.75;5003875;28;20309;-81
2022/03/09 06:09:00;;;;;;;41.75;18.30;;;;;;;-3.87;66.95;93845.06;5003603;28;20216;-81
2022/03/09 06:11:25;;;;;;;36.13;15.20;;;;;;;-3.93;66.10;93845.94;5003826;28;20060;-80
2022/03/09 06:13:51;;;;;;;37.88;16.38;;;;;;;-3.79;66.15;93853.53;5003893;28;20022;-79
2022/03/09 06:16:17;;;;;;;37.95;17.20;;;;;;;-3.81;66.20;93847.75;5003882;28;20033;-79
2022/03/09 06:18:46;;;;;;;36.80;16.52;;;;;;;-3.75;65.69;93852.88;5003738;28;20065;-80
2022/03/09 06:21:14;;;;;;;35.47;17.02;;;;;;;-3.69;65.50;93846.75;5003718;28;20022;-81
2022/03/09 06:23:40;;;;;;;38.13;16.95;;;;;;;-3.67;65.42;93847.31;5003537;28;20050;-81
2022/03/09 06:26:06;;;;;;;41.13;19.25;;;;;;;-3.63;65.56;93856.28;5003548;28;20022;-80
2022/03/09 06:28:32;;;;;;;39.00;17.23;;;;;;;-3.63;65.35;93852.88;5003753;28;20709;-80
2022/03/09 06:30:58;;;;;;;42.20;17.67;;;;;;;-3.66;65.46;93854.13;5003530;28;20221;-73
2022/03/09 06:33:23;;;;;;;41.83;18.25;;;;;;;-3.62;65.19;93849.28;5003631;28;20328;-78
2022/03/09 06:35:49;;;;;;;39.58;18.17;;;;;;;-3.47;64.34;93856.66;5003554;28;20023;-79
2022/03/09 06:38:14;;;;;;;40.83;18.58;;;;;;;-3.43;64.10;93858.56;5003126;28;20033;-79
2022/03/09 06:40:40;;;;;;;37.78;17.63;;;;;;;-3.61;64.52;93858.66;5003249;28;20337;-79
2022/03/09 06:43:05;;;;;;;35.90;16.58;;;;;;;-3.56;64.67;93857.97;5003438;28;20029;-80
2022/03/09 06:45:31;;;;;;;40.40;17.98;;;;;;;-3.44;64.31;93859.59;5003295;28;20320;-81
2022/03/09 06:47:56;;;;;;;38.55;18.80;;;;;;;-3.33;64.30;93865.03;5003078;28;20072;-82
2022/03/09 06:50:22;;;;;;;39.90;18.02;;;;;;;-3.23;63.76;93860.84;5003225;28;20026;-81
2022/03/09 06:52:48;;;;;;;35.70;17.10;;;;;;;-3.25;63.61;93860.28;5003368;28;20026;-80
2022/03/09 06:55:13;;;;;;;40.05;17.98;;;;;;;-3.03;63.36;93873.53;5003043;28;20322;-81
2022/03/09 06:57:40;;;;;;;36.33;17.08;;;;;;;-2.89;62.62;93878.50;5003059;28;20018;-80
2022/03/09 07:00:09;;;;;;;37.78;18.02;;;;;;;-2.87;61.18;93877.25;5002529;28;20041;-80
2022/03/09 07:02:34;;;;;;;37.55;16.90;;;;;;;-2.83;62.03;93875.78;5002724;28;20030;-80
2022/03/09 07:05:00;;;;;;;39.22;17.80;;;;;;;-2.75;61.16;93879.03;5003139;28;20026;-80
2022/03/09 07:07:25;;;;;;;38.58;16.25;;;;;;;-2.66;61.21;93868.03;5003039;28;20022;-80
2022/03/09 07:09:51;;;;;;;35.08;16.92;;;;;;;-2.65;60.40;93867.00;5003124;28;20022;-78
2022/03/09 07:12:16;;;;;;;58.03;18.45;;;;;;;-2.57;60.06;93868.44;5003069;28;20030;-80
2022/03/09 07:14:42;;;;;;;47.15;19.67;;;;;;;-2.47;61.39;93873.88;5003188;28;20030;-80
2022/03/09 07:17:07;;;;;;;35.92;17.42;;;;;;;-2.30;60.32;93865.31;5002860;28;20034;-80
2022/03/09 07:19:33;;;;;;;38.65;17.48;;;;;;;-2.15;59.70;93868.22;5004359;28;20064;-82
2022/03/09 07:21:58;;;;;;;31.35;15.40;;;;;;;-2.16;58.28;93855.38;5007233;28;20110;-79
2022/03/09 07:24:24;;;;;;;35.90;16.17;;;;;;;-2.17;59.33;93859.81;5008132;28;20216;-79
2022/03/09 07:26:49;;;;;;;31.95;15.10;;;;;;;-2.20;57.34;93868.09;5006821;28;20030;-79
2022/03/09 07:29:17;;;;;;;31.40;15.45;;;;;;;-2.25;58.23;93862.81;5006682;28;20050;-79
2022/03/09 07:31:43;;;;;;;29.83;15.48;;;;;;;-2.36;57.88;93867.06;5006417;28;20228;-80
2022/03/09 07:34:08;;;;;;;34.33;15.73;;;;;;;-2.37;58.22;93868.06;5006907;28;20018;-80
2022/03/09 07:36:34;;;;;;;34.25;17.23;;;;;;;-2.32;58.11;93868.16;5007043;28;20030;-80
2022/03/09 07:39:00;;;;;;;42.97;17.75;;;;;;;-2.23;58.15;93860.75;5006887;28;20026;-80
2022/03/09 07:41:25;;;;;;;32.78;16.17;;;;;;;-2.17;57.78;93864.25;5006124;28;20435;-80
2022/03/09 07:43:51;;;;;;;36.38;16.98;;;;;;;-2.06;57.48;93858.97;5005197;28;20026;-80
2022/03/09 07:46:17;;;;;;;32.78;16.77;;;;;;;-1.99;56.95;93866.66;5020676;28;20050;-78
2022/03/09 07:48:42;;;;;;;30.52;16.77;;;;;;;-1.92;56.68;93856.84;5005329;28;20022;-80
2022/03/09 07:51:08;;;;;;;35.05;15.73;;;;;;;-1.77;56.24;93858.13;5005192;28;20022;-76
2022/03/09 07:53:33;;;;;;;33.70;16.02;;;;;;;-1.69;55.57;93857.75;5005121;28;20018;-77
2022/03/09 07:56:07;;;;;;;38.53;16.05;;;;;;;-1.63;55.58;93848.97;5004995;28;20028;-75
2022/03/09 07:58:32;;;;;;;39.63;18.65;;;;;;;-1.59;56.13;93834.38;5004954;28;20033;-76
2022/03/09 08:00:58;;;;;;;36.45;16.70;;;;;;;-1.45;54.46;93835.66;5003887;28;20022;-76
2022/03/09 08:03:23;;;;;;;30.17;14.98;;;;;;;-1.44;53.75;93845.09;5005248;28;20019;-76
2022/03/09 08:05:49;;;;;;;33.85;15.88;;;;;;;-1.53;54.18;93843.09;5005097;28;20221;-76
2022/03/09 08:08:14;;;;;;;34.45;16.23;;;;;;;-1.48;54.84;93843.97;5004706;28;20018;-78
2022/03/09 08:10:40;;;;;;;31.70;15.10;;;;;;;-1.56;53.74;93841.75;5005091;28;20030;-78
2022/03/09 08:13:05;;;;;;;37.70;18.55;;;;;;;-1.57;56.04;93837.56;5004888;28;20050;-78
2022/03/09 08:15:31;;;;;;;40.05;18.05;;;;;;;-1.53;56.72;93843.88;5004839;28;20232;-76
2022/03/09 08:17:56;;;;;;;45.03;19.50;;;;;;;-1.39;57.48;93843.59;5004961;28;20098;-76
2022/03/09 08:20:21;;;;;;;37.92;17.35;;;;;;;-1.28;55.75;93840.09;5004693;28;20273;-76
2022/03/09 08:22:47;;;;;;;36.25;16.85;;;;;;;-1.23;54.92;93837.53;5004494;28;20364;-79
2022/03/09 08:25:12;;;;;;;76.18;20.85;;;;;;;-1.13;56.41;93839.50;5004758;28;20018;-81
2022/03/09 08:27:38;;;;;;;42.65;19.67;;;;;;;-0.99;55.64;93845.19;5004683;28;20088;-81
2022/03/09 08:30:04;;;;;;;56.33;18.65;;;;;;;-0.83;55.63;93844.38;5004166;28;20104;-81
2022/03/09 08:32:30;;;;;;;74.78;21.27;;;;;;;-0.63;55.79;93842.00;5004539;28;20019;-80
2022/03/09 08:34:55;;;;;;;46.97;19.05;;;;;;;-0.42;55.60;93839.63;5004488;28;20029;-81
2022/03/09 08:37:21;;;;;;;41.75;18.63;;;;;;;-0.25;54.70;93835.09;5004568;28;20022;-81
2022/03/09 08:39:48;;;;;;;32.85;17.38;;;;;;;-0.08;54.84;93828.97;5004463;28;20304;-77
2022/03/09 08:42:15;;;;;;;35.40;17.58;;;;;;;0.12;54.74;93829.19;4959988;28;1309129;-79
2022/03/09 08:44:40;;;;;;;35.92;18.55;;;;;;;0.27;53.17;93825.13;5005401;28;20033;-79
2022/03/09 08:47:06;;;;;;;38.97;17.73;;;;;;;0.38;53.55;93834.63;5005367;28;20022;-78
2022/03/09 08:49:33;;;;;;;36.85;17.55;;;;;;;0.55;53.12;93824.81;5020709;28;20316;-77
2022/03/09 08:51:59;;;;;;;35.42;18.25;;;;;;;0.66;52.63;93827.50;5005267;28;20022;-78
2022/03/09 08:54:25;;;;;;;41.30;19.27;;;;;;;0.83;52.76;93828.13;5005572;28;20374;-80
2022/03/09 08:56:50;;;;;;;38.40;18.42;;;;;;;0.82;51.64;93826.56;5005299;28;20305;-81
2022/03/09 08:59:16;;;;;;;33.38;17.95;;;;;;;0.87;50.35;93826.59;5005310;28;20073;-81
2022/03/09 09:01:42;;;;;;;33.97;16.55;;;;;;;0.86;50.91;93821.63;5020450;28;20309;-80
2022/03/09 09:04:07;;;;;;;33.97;16.25;;;;;;;0.76;51.32;93830.19;5020300;28;20069;-81
2022/03/09 09:06:33;;;;;;;36.83;18.63;;;;;;;0.77;52.46;93818.66;5005048;28;20304;-78
2022/03/09 09:08:58;;;;;;;38.65;18.02;;;;;;;0.86;51.78;93819.78;5003777;28;20026;-79
2022/03/09 09:11:24;;;;;;;41.75;19.75;;;;;;;0.92;51.76;93817.97;5003500;28;20071;-78
2022/03/09 09:13:49;;;;;;;40.35;20.13;;;;;;;0.89;52.91;93819.25;5003147;28;20048;-78
2022/03/09 09:16:15;;;;;;;37.47;18.80;;;;;;;0.99;52.45;93816.69;5003153;28;20098;-76
2022/03/09 09:18:43;;;;;;;37.42;18.58;;;;;;;1.04;52.56;93825.63;5002907;28;20030;-79
2022/03/09 09:21:08;;;;;;;35.28;18.25;;;;;;;1.04;53.29;93815.94;5002964;28;20313;-79
2022/03/09 09:23:34;;;;;;;38.15;19.42;;;;;;;1.11;52.14;93813.09;5003342;28;20014;-77
2022/03/09 09:25:59;;;;;;;47.47;20.65;;;;;;;1.12;52.98;93812.03;5002967;28;20343;-79
2022/03/09 09:28:25;;;;;;;48.70;19.50;;;;;;;1.13;53.23;93824.13;5003719;28;20320;-79
2022/03/09 09:30:50;;;;;;;39.53;19.15;;;;;;;1.19;51.33;93815.22;5003998;28;20080;-80
2022/03/09 09:33:16;;;;;;;42.33;20.42;;;;;;;1.27;52.65;93817.38;5003757;28;20098;-80
2022/03/09 09:35:42;;;;;;;54.65;21.85;;;;;;;1.28;52.52;93826.81;5004626;28;20318;-80
2022/03/09 09:38:08;;;;;;;44.55;19.70;;;;;;;1.24;52.67;93819.69;5004556;28;20065;-78
2022/03/09 09:40:35;;;;;;;35.88;18.40;;;;;;;1.18;51.89;93824.94;5019366;28;20069;-78
2022/03/09 09:43:07;;;;;;;45.83;19.30;;;;;;;1.07;53.07;93827.75;5003628;28;20034;-79
2022/03/09 09:45:34;;;;;;;36.35;18.92;;;;;;;1.09;52.16;93830.91;5004390;28;20097;-78
2022/03/09 09:48:01;;;;;;;38.95;18.40;;;;;;;1.05;51.84;93814.88;5004254;28;20053;-77
2022/03/09 09:50:26;;;;;;;35.42;18.63;;;;;;;0.93;52.74;93827.41;5019434;28;20318;-78
2022/03/09 09:52:52;;;;;;;41.50;19.00;;;;;;;0.98;52.79;93815.13;5004272;28;20054;-78
2022/03/09 09:55:17;;;;;;;35.40;18.33;;;;;;;1.05;52.58;93830.63;5004118;28;20027;-78
2022/03/09 09:57:46;;;;;;;37.63;18.02;;;;;;;1.13;52.27;93816.25;5002872;28;20193;-76
2022/03/09 10:00:12;;;;;;;34.85;16.83;;;;;;;1.14;51.46;93817.81;5004151;28;20217;-75
2022/03/09 10:02:40;;;;;;;31.75;16.67;;;;;;;1.11;51.15;93818.34;5004034;28;20050;-76
2022/03/09 10:05:06;;;;;;;33.38;16.33;;;;;;;0.98;51.24;93819.59;5004164;28;20026;-76
2022/03/09 10:07:32;;;;;;;31.20;15.57;;;;;;;0.90;49.64;93812.97;5002973;28;20347;-77
2022/03/09 10:09:57;;;;;;;31.08;14.45;;;;;;;0.91;51.77;93813.75;5003953;28;20057;-75
2022/03/09 10:12:28;;;;;;;31.40;15.07;;;;;;;0.96;50.26;93808.56;5004206;28;20198;-76
2022/03/09 10:14:54;;;;;;;29.73;15.25;;;;;;;0.99;51.85;93811.44;5003913;28;20042;-76
2022/03/09 10:17:30;;;;;;;32.42;16.08;;;;;;;0.90;50.03;93818.22;5003905;28;20038;-75
2022/03/09 10:20:08;;;;;;;31.20;14.82;;;;;;;0.95;51.01;93817.44;5003833;28;20031;-77
2022/03/09 10:22:37;;;;;;;35.25;14.40;;;;;;;0.70;51.24;93815.47;5003738;28;20030;-78
2022/03/09 10:25:22;;;;;;;29.92;14.90;;;;;;;0.46;51.91;93820.28;5003748;28;20328;-77
2022/03/09 10:27:53;;;;;;;28.90;14.75;;;;;;;0.42;53.25;93811.31;5003522;28;20042;-78
2022/03/09 10:30:23;;;;;;;27.48;13.43;;;;;;;0.33;53.22;93811.00;5003638;28;20026;-79
2022/03/09 10:32:54;;;;;;;26.55;14.18;;;;;;;0.28;53.64;93813.56;5003568;28;20220;-80
2022/03/09 10:35:31;;;;;;;29.00;14.05;;;;;;;0.29;53.55;93813.31;5003555;28;20022;-80
2022/03/09 10:38:24;;;;;;;25.77;13.95;;;;;;;0.29;53.30;93813.31;5003804;28;20060;-79
2022/03/09 10:40:50;;;;;;;;;;;;;;;0.33;54.66;93819.66;5003676;28;20217;-80
2022/03/09 10:43:31;;;;;;;24.50;12.35;;;;;;;0.35;52.48;93816.78;5003440;28;19906;-79
2022/03/09 10:46:00;;;;;;;27.38;12.93;;;;;;;0.36;52.26;93800.00;5002417;28;20101;-80
2022/03/09 10:48:27;;;;;;;26.48;13.75;;;;;;;0.47;54.23;93801.66;5003629;28;20264;-80
2022/03/09 10:50:54;;;;;;;25.35;12.73;;;;;;;0.47;51.38;93801.66;5003285;28;20014;-80
2022/03/09 10:53:20;;;;;;;24.05;12.15;;;;;;;0.47;50.75;93804.28;5003023;28;20022;-80
2022/03/09 10:55:47;;;;;;;26.63;11.43;;;;;;;0.55;49.84;93793.34;5003124;28;20026;-80
2022/03/09 10:58:14;;;;;;;23.08;11.18;;;;;;;0.58;51.74;93803.31;5003279;28;20044;-79
2022/03/09 11:00:47;;;;;;;21.52;11.65;;;;;;;0.77;51.07;93800.28;5003029;28;20057;-80
2022/03/09 11:03:17;;;;;;;20.48;10.88;;;;;;;0.90;49.52;93794.59;5018361;28;20320;-80
2022/03/09 11:05:50;;;;;;;17.67;8.75;;;;;;;0.91;47.92;93795.38;5003155;28;20375;-80
2022/03/09 11:08:17;;;;;;;21.88;10.63;;;;;;;1.02;50.26;93796.22;5003174;28;20037;-79
2022/03/09 11:10:47;;;;;;;13.15;7.20;;;;;;;1.03;45.77;93797.81;5003060;28;20022;-80
2022/03/09 11:13:13;;;;;;;14.93;6.75;;;;;;;0.86;45.37;93779.63;5002970;28;20330;-80
2022/03/09 11:15:43;;;;;;;13.65;6.70;;;;;;;0.89;45.74;93790.38;5003069;28;20018;-79
2022/03/09 11:18:13;;;;;;;16.20;8.50;;;;;;;0.82;45.82;93786.44;5003088;28;20026;-76